หน้าหลัก
METAR-TAF:

METAR-TAF

ท่าอากาศยาน :

ลิเวอร์พูล, อังกฤษ

ละติจูด: 53-20N, ลองจิจูด: 002-51W, ความสูง: 26 ม.

การสังเกตสภาพอากาศปัจจุบัน

รายงานได้ทำขึ้นเมื่อ 45 นาทีที่แล้ว ณ เวลา 00:20 UTC
ลม 4 นอตจากเหนือ/ตะวันตกเฉียงเหนือ
อุณหภูมิ 13°C
ความชื้น 88%
ความกดอากาศ 1020 hPa
ทัศนวิสัย 10 กม. หรือมากกว่า
มีเมฆน้อยที่ความสูง 1800 ฟุต
มีเมฆเป็นส่วนมากเว้นเป็นระยะที่ความสูง 2500 ฟุต

METAR: EGGP 190020Z 33004KT 9999 FEW018 BKN025 13/11 Q1020

เวลา: 02:05 (01:05 UTC)

การพยากรณ์

รายงานได้ทำขึ้นเมื่อ 17 นาทีที่แล้ว ณ เวลา 00:48 UTC
การพยากรณ์มีผลตั้งแต่วันที่ 19 ณ เวลา 00 UTC จนถึงวันที่ 19 ณ เวลา 24 UTC
ลม 4 นอตจากตะวันออกเฉียงเหนือ
ทัศนวิสัย 10 กม. หรือมากกว่า
มีเมฆกระจายเป็นบางส่วนที่ความสูง 3500 ฟุต
ชั่วคราว
ตั้งแต่วันที่ 19 ณ เวลา 00 UTC จนถึงวันที่ 19 ณ เวลา 02 UTC
ทัศนวิสัย: 8000 ม.
ฝนโปรยปรายเล็กน้อย
กำลังกลายเป็น
ตั้งแต่วันที่ 19 ณ เวลา 12 UTC จนถึงวันที่ 19 ณ เวลา 15 UTC
ลม 10 นอตจากตะวันตก

TAF: EGGP 190048Z 1900/1924 05004KT 9999 SCT035 TEMPO 1900/1902 8000 -SHRA BECMG 1912/1915 27010KT

สังเกตการณ์สภาพอากาศและพยากรณ์อากาศของสนามบินมากกว่า 4000 แห่ง (รายงาน METAR และ TAF).

สถานีที่ดูได้จะแสดงไว้ด้วยจุดสีเหลืองและสีแดงบนแผนที่.

เลื่อนเมาส์ไปเหนือจุดเพื่อดูชื่อสถานี.

แล้วคลิกเพื่อดูสังเกตการณ์และการพยากรณ์สภาพอากาศ.

ในการเปลี่ยนแผนที่: คลิกที่ปุ่มสีเขียวที่มีกากบาทสีดำเพื่อซูมเข้า; ที่ปุ่มสีเขียวที่มีขีดเพื่อซูมออก; หรือที่ลูกศรสีเขียวเพื่อไปยังแผนที่ที่อยู่ติดกัน.


METAR-TAF: